sensor_id;sensor_type;location;lat;lon;timestamp;P1;durP1;ratioP1;P2;durP2;ratioP2
64235;SDS011;50564;47.402;9.740;2023-06-14T00:04:44;7.72;;;4.10;;
64235;SDS011;50564;47.402;9.740;2023-06-14T00:09:48;5.78;;;3.35;;
64235;SDS011;50564;47.402;9.740;2023-06-14T00:14:48;6.38;;;3.50;;
64235;SDS011;50564;47.402;9.740;2023-06-14T00:19:49;6.38;;;3.65;;
64235;SDS011;50564;47.402;9.740;2023-06-14T00:24:50;5.15;;;3.40;;
64235;SDS011;50564;47.402;9.740;2023-06-14T00:29:52;7.63;;;3.45;;
64235;SDS011;50564;47.402;9.740;2023-06-14T00:34:52;6.47;;;3.95;;
64235;SDS011;50564;47.402;9.740;2023-06-14T00:39:53;6.30;;;3.70;;
64235;SDS011;50564;47.402;9.740;2023-06-14T00:44:54;5.57;;;3.75;;
64235;SDS011;50564;47.402;9.740;2023-06-14T00:49:55;5.97;;;3.25;;
64235;SDS011;50564;47.402;9.740;2023-06-14T00:54:56;6.55;;;3.55;;
64235;SDS011;50564;47.402;9.740;2023-06-14T00:59:57;5.45;;;3.63;;
64235;SDS011;50564;47.402;9.740;2023-06-14T01:04:58;6.30;;;4.05;;
64235;SDS011;50564;47.402;9.740;2023-06-14T01:10:06;7.28;;;3.85;;
64235;SDS011;50564;47.402;9.740;2023-06-14T01:15:29;5.78;;;3.70;;
64235;SDS011;50564;47.402;9.740;2023-06-14T01:20:32;5.28;;;3.45;;
64235;SDS011;50564;47.402;9.740;2023-06-14T01:25:33;6.43;;;3.80;;
64235;SDS011;50564;47.402;9.740;2023-06-14T01:30:36;5.82;;;3.78;;
64235;SDS011;50564;47.402;9.740;2023-06-14T01:35:38;6.18;;;3.70;;
64235;SDS011;50564;47.402;9.740;2023-06-14T01:40:39;6.05;;;3.83;;
64235;SDS011;50564;47.402;9.740;2023-06-14T01:45:40;7.22;;;4.00;;
64235;SDS011;50564;47.402;9.740;2023-06-14T01:50:42;5.68;;;3.70;;
64235;SDS011;50564;47.402;9.740;2023-06-14T01:55:42;6.65;;;3.53;;
64235;SDS011;50564;47.402;9.740;2023-06-14T02:00:43;5.70;;;3.40;;
64235;SDS011;50564;47.402;9.740;2023-06-14T02:05:45;10.55;;;4.18;;
64235;SDS011;50564;47.402;9.740;2023-06-14T02:10:45;6.38;;;3.28;;
64235;SDS011;50564;47.402;9.740;2023-06-14T02:15:47;4.80;;;3.35;;
64235;SDS011;50564;47.402;9.740;2023-06-14T02:20:51;6.03;;;4.53;;
64235;SDS011;50564;47.402;9.740;2023-06-14T02:25:52;6.70;;;3.95;;
64235;SDS011;50564;47.402;9.740;2023-06-14T02:30:53;6.00;;;3.80;;
64235;SDS011;50564;47.402;9.740;2023-06-14T02:35:57;6.47;;;3.83;;
64235;SDS011;50564;47.402;9.740;2023-06-14T02:40:57;6.47;;;3.88;;
64235;SDS011;50564;47.402;9.740;2023-06-14T02:46:00;5.95;;;3.88;;
64235;SDS011;50564;47.402;9.740;2023-06-14T02:51:00;6.93;;;3.85;;
64235;SDS011;50564;47.402;9.740;2023-06-14T02:56:01;6.65;;;3.70;;
64235;SDS011;50564;47.402;9.740;2023-06-14T03:01:04;5.93;;;3.80;;
64235;SDS011;50564;47.402;9.740;2023-06-14T03:06:07;7.50;;;3.65;;
64235;SDS011;50564;47.402;9.740;2023-06-14T03:11:10;7.60;;;4.03;;
64235;SDS011;50564;47.402;9.740;2023-06-14T03:16:11;5.85;;;3.55;;
64235;SDS011;50564;47.402;9.740;2023-06-14T03:21:14;10.07;;;3.95;;
64235;SDS011;50564;47.402;9.740;2023-06-14T03:26:17;6.20;;;3.75;;
64235;SDS011;50564;47.402;9.740;2023-06-14T03:31:20;7.43;;;3.63;;
64235;SDS011;50564;47.402;9.740;2023-06-14T03:36:22;5.78;;;3.70;;
64235;SDS011;50564;47.402;9.740;2023-06-14T03:41:23;7.82;;;3.67;;
64235;SDS011;50564;47.402;9.740;2023-06-14T03:46:25;5.78;;;3.95;;
64235;SDS011;50564;47.402;9.740;2023-06-14T03:51:26;7.82;;;3.60;;
64235;SDS011;50564;47.402;9.740;2023-06-14T03:56:29;5.00;;;3.20;;
64235;SDS011;50564;47.402;9.740;2023-06-14T04:01:30;7.57;;;3.28;;
64235;SDS011;50564;47.402;9.740;2023-06-14T04:06:34;5.53;;;3.60;;
64235;SDS011;50564;47.402;9.740;2023-06-14T04:11:35;6.32;;;3.92;;
64235;SDS011;50564;47.402;9.740;2023-06-14T04:16:36;6.55;;;3.83;;
64235;SDS011;50564;47.402;9.740;2023-06-14T04:21:37;8.00;;;3.75;;
64235;SDS011;50564;47.402;9.740;2023-06-14T04:26:42;6.57;;;4.18;;
64235;SDS011;50564;47.402;9.740;2023-06-14T04:31:45;9.75;;;4.00;;
64235;SDS011;50564;47.402;9.740;2023-06-14T04:36:48;8.57;;;3.97;;
64235;SDS011;50564;47.402;9.740;2023-06-14T04:41:54;9.10;;;4.35;;
64235;SDS011;50564;47.402;9.740;2023-06-14T04:46:57;7.25;;;4.00;;
64235;SDS011;50564;47.402;9.740;2023-06-14T04:51:59;9.48;;;4.18;;
64235;SDS011;50564;47.402;9.740;2023-06-14T04:57:06;8.27;;;4.07;;
64235;SDS011;50564;47.402;9.740;2023-06-14T05:02:07;9.10;;;4.85;;
64235;SDS011;50564;47.402;9.740;2023-06-14T05:07:09;7.88;;;4.20;;
64235;SDS011;50564;47.402;9.740;2023-06-14T05:12:10;8.13;;;4.07;;
64235;SDS011;50564;47.402;9.740;2023-06-14T05:17:10;6.88;;;4.15;;
64235;SDS011;50564;47.402;9.740;2023-06-14T05:22:11;8.88;;;3.58;;
64235;SDS011;50564;47.402;9.740;2023-06-14T05:27:11;9.20;;;3.90;;
64235;SDS011;50564;47.402;9.740;2023-06-14T05:32:12;5.65;;;3.67;;
64235;SDS011;50564;47.402;9.740;2023-06-14T05:37:13;6.30;;;4.10;;
64235;SDS011;50564;47.402;9.740;2023-06-14T05:42:14;5.50;;;3.60;;
64235;SDS011;50564;47.402;9.740;2023-06-14T05:47:14;8.82;;;3.53;;
64235;SDS011;50564;47.402;9.740;2023-06-14T05:52:15;7.72;;;4.90;;
64235;SDS011;50564;47.402;9.740;2023-06-14T05:57:16;5.85;;;3.88;;
64235;SDS011;50564;47.402;9.740;2023-06-14T06:02:16;6.85;;;4.55;;
64235;SDS011;50564;47.402;9.740;2023-06-14T06:07:17;7.75;;;3.97;;
64235;SDS011;50564;47.402;9.740;2023-06-14T06:12:18;9.20;;;4.43;;
64235;SDS011;50564;47.402;9.740;2023-06-14T06:17:18;9.20;;;4.38;;
64235;SDS011;50564;47.402;9.740;2023-06-14T06:22:19;5.72;;;3.75;;
64235;SDS011;50564;47.402;9.740;2023-06-14T06:27:19;8.82;;;4.38;;
64235;SDS011;50564;47.402;9.740;2023-06-14T06:32:21;6.45;;;4.25;;
64235;SDS011;50564;47.402;9.740;2023-06-14T06:37:22;7.45;;;4.55;;
64235;SDS011;50564;47.402;9.740;2023-06-14T06:42:22;8.07;;;4.00;;
64235;SDS011;50564;47.402;9.740;2023-06-14T06:47:24;5.72;;;4.18;;
64235;SDS011;50564;47.402;9.740;2023-06-14T06:52:25;6.35;;;4.10;;
64235;SDS011;50564;47.402;9.740;2023-06-14T06:57:26;9.95;;;5.95;;
64235;SDS011;50564;47.402;9.740;2023-06-14T07:02:27;7.00;;;4.07;;
64235;SDS011;50564;47.402;9.740;2023-06-14T07:07:27;9.10;;;4.25;;
64235;SDS011;50564;47.402;9.740;2023-06-14T07:12:28;5.00;;;3.80;;
64235;SDS011;50564;47.402;9.740;2023-06-14T07:17:29;9.30;;;4.03;;
64235;SDS011;50564;47.402;9.740;2023-06-14T07:22:30;7.03;;;4.10;;
64235;SDS011;50564;47.402;9.740;2023-06-14T07:27:30;7.65;;;4.43;;
64235;SDS011;50564;47.402;9.740;2023-06-14T07:32:31;8.40;;;3.80;;
64235;SDS011;50564;47.402;9.740;2023-06-14T07:37:31;7.32;;;4.63;;
64235;SDS011;50564;47.402;9.740;2023-06-14T07:42:33;8.90;;;4.40;;
64235;SDS011;50564;47.402;9.740;2023-06-14T07:47:35;14.40;;;5.03;;
64235;SDS011;50564;47.402;9.740;2023-06-14T07:52:35;7.80;;;4.30;;
64235;SDS011;50564;47.402;9.740;2023-06-14T07:57:36;7.97;;;4.90;;
64235;SDS011;50564;47.402;9.740;2023-06-14T08:02:37;7.43;;;4.22;;
64235;SDS011;50564;47.402;9.740;2023-06-14T08:07:38;8.82;;;5.13;;
64235;SDS011;50564;47.402;9.740;2023-06-14T08:12:39;10.38;;;4.70;;
64235;SDS011;50564;47.402;9.740;2023-06-14T08:17:41;10.40;;;4.72;;
64235;SDS011;50564;47.402;9.740;2023-06-14T08:22:43;8.90;;;4.97;;
64235;SDS011;50564;47.402;9.740;2023-06-14T08:27:43;8.02;;;4.43;;
64235;SDS011;50564;47.402;9.740;2023-06-14T08:32:44;7.55;;;4.60;;
64235;SDS011;50564;47.402;9.740;2023-06-14T08:37:45;7.55;;;4.18;;
64235;SDS011;50564;47.402;9.740;2023-06-14T08:42:47;7.75;;;4.50;;
64235;SDS011;50564;47.402;9.740;2023-06-14T08:47:51;6.45;;;3.95;;
64235;SDS011;50564;47.402;9.740;2023-06-14T08:52:53;10.82;;;4.50;;
64235;SDS011;50564;47.402;9.740;2023-06-14T08:57:55;7.68;;;4.85;;
64235;SDS011;50564;47.402;9.740;2023-06-14T09:03:00;6.90;;;4.47;;
64235;SDS011;50564;47.402;9.740;2023-06-14T09:08:01;8.25;;;4.68;;
64235;SDS011;50564;47.402;9.740;2023-06-14T09:13:01;8.63;;;5.18;;
64235;SDS011;50564;47.402;9.740;2023-06-14T09:18:03;7.00;;;4.70;;
64235;SDS011;50564;47.402;9.740;2023-06-14T09:23:03;8.57;;;5.20;;
64235;SDS011;50564;47.402;9.740;2023-06-14T09:28:08;8.75;;;4.50;;
64235;SDS011;50564;47.402;9.740;2023-06-14T09:33:09;8.85;;;4.40;;
64235;SDS011;50564;47.402;9.740;2023-06-14T09:38:09;8.35;;;4.30;;
64235;SDS011;50564;47.402;9.740;2023-06-14T09:43:10;8.88;;;4.55;;
64235;SDS011;50564;47.402;9.740;2023-06-14T09:48:11;6.53;;;4.30;;
64235;SDS011;50564;47.402;9.740;2023-06-14T09:53:12;7.07;;;4.90;;
64235;SDS011;50564;47.402;9.740;2023-06-14T09:58:13;6.28;;;4.25;;
64235;SDS011;50564;47.402;9.740;2023-06-14T10:03:21;12.18;;;4.93;;
64235;SDS011;50564;47.402;9.740;2023-06-14T10:08:25;8.60;;;4.57;;
64235;SDS011;50564;47.402;9.740;2023-06-14T10:13:28;6.80;;;4.60;;
64235;SDS011;50564;47.402;9.740;2023-06-14T10:18:40;5.85;;;4.00;;
64235;SDS011;50564;47.402;9.740;2023-06-14T10:23:45;8.30;;;4.18;;
64235;SDS011;50564;47.402;9.740;2023-06-14T10:29:00;6.30;;;4.55;;
64235;SDS011;50564;47.402;9.740;2023-06-14T10:34:02;7.40;;;4.35;;
64235;SDS011;50564;47.402;9.740;2023-06-14T10:39:06;8.35;;;4.53;;
64235;SDS011;50564;47.402;9.740;2023-06-14T10:54:54;9.15;;;4.50;;
64235;SDS011;50564;47.402;9.740;2023-06-14T10:59:56;10.75;;;4.28;;
64235;SDS011;50564;47.402;9.740;2023-06-14T11:04:57;5.90;;;4.15;;
64235;SDS011;50564;47.402;9.740;2023-06-14T11:15:28;6.45;;;4.18;;
64235;SDS011;50564;47.402;9.740;2023-06-14T11:20:33;6.57;;;4.13;;
64235;SDS011;50564;47.402;9.740;2023-06-14T11:25:35;8.27;;;4.00;;
64235;SDS011;50564;47.402;9.740;2023-06-14T11:30:36;6.00;;;3.70;;
64235;SDS011;50564;47.402;9.740;2023-06-14T11:35:36;5.40;;;3.95;;
64235;SDS011;50564;47.402;9.740;2023-06-14T11:40:37;7.63;;;4.20;;
64235;SDS011;50564;47.402;9.740;2023-06-14T11:45:38;5.53;;;4.28;;
64235;SDS011;50564;47.402;9.740;2023-06-14T11:50:39;11.63;;;3.80;;
64235;SDS011;50564;47.402;9.740;2023-06-14T11:55:40;6.75;;;3.72;;
64235;SDS011;50564;47.402;9.740;2023-06-14T12:00:41;9.13;;;3.28;;
64235;SDS011;50564;47.402;9.740;2023-06-14T12:05:42;5.95;;;3.42;;
64235;SDS011;50564;47.402;9.740;2023-06-14T12:10:44;6.43;;;3.40;;
64235;SDS011;50564;47.402;9.740;2023-06-14T12:15:45;5.32;;;3.17;;
64235;SDS011;50564;47.402;9.740;2023-06-14T12:20:50;6.45;;;3.65;;
64235;SDS011;50564;47.402;9.740;2023-06-14T12:25:50;7.88;;;3.50;;
64235;SDS011;50564;47.402;9.740;2023-06-14T12:30:52;6.68;;;3.65;;
64235;SDS011;50564;47.402;9.740;2023-06-14T12:35:54;8.23;;;3.40;;
64235;SDS011;50564;47.402;9.740;2023-06-14T12:40:56;4.60;;;3.42;;
64235;SDS011;50564;47.402;9.740;2023-06-14T12:45:57;5.15;;;3.35;;
64235;SDS011;50564;47.402;9.740;2023-06-14T12:50:58;3.65;;;3.10;;
64235;SDS011;50564;47.402;9.740;2023-06-14T12:55:59;4.43;;;3.40;;
64235;SDS011;50564;47.402;9.740;2023-06-14T13:00:59;3.90;;;2.95;;
64235;SDS011;50564;47.402;9.740;2023-06-14T13:06:00;5.82;;;2.95;;
64235;SDS011;50564;47.402;9.740;2023-06-14T13:11:01;6.63;;;3.22;;
64235;SDS011;50564;47.402;9.740;2023-06-14T13:16:02;6.70;;;3.03;;
64235;SDS011;50564;47.402;9.740;2023-06-14T13:21:03;4.88;;;2.80;;
64235;SDS011;50564;47.402;9.740;2023-06-14T13:26:03;6.18;;;3.17;;
64235;SDS011;50564;47.402;9.740;2023-06-14T13:31:04;3.10;;;2.80;;
64235;SDS011;50564;47.402;9.740;2023-06-14T13:36:04;7.35;;;2.85;;
64235;SDS011;50564;47.402;9.740;2023-06-14T13:41:05;3.53;;;2.85;;
64235;SDS011;50564;47.402;9.740;2023-06-14T13:46:06;4.40;;;2.83;;
64235;SDS011;50564;47.402;9.740;2023-06-14T13:51:06;2.80;;;2.50;;
64235;SDS011;50564;47.402;9.740;2023-06-14T13:56:07;6.35;;;2.83;;
64235;SDS011;50564;47.402;9.740;2023-06-14T14:01:08;4.45;;;2.95;;
64235;SDS011;50564;47.402;9.740;2023-06-14T14:06:09;5.97;;;2.85;;
64235;SDS011;50564;47.402;9.740;2023-06-14T14:11:09;4.70;;;3.22;;
64235;SDS011;50564;47.402;9.740;2023-06-14T14:16:10;4.35;;;3.13;;
64235;SDS011;50564;47.402;9.740;2023-06-14T14:21:11;4.82;;;3.05;;
64235;SDS011;50564;47.402;9.740;2023-06-14T14:26:11;5.25;;;2.92;;
64235;SDS011;50564;47.402;9.740;2023-06-14T14:31:12;6.03;;;3.10;;
64235;SDS011;50564;47.402;9.740;2023-06-14T14:36:12;4.88;;;2.88;;
64235;SDS011;50564;47.402;9.740;2023-06-14T14:41:14;5.53;;;2.90;;
64235;SDS011;50564;47.402;9.740;2023-06-14T14:46:14;4.68;;;2.97;;
64235;SDS011;50564;47.402;9.740;2023-06-14T14:51:16;4.00;;;2.80;;
64235;SDS011;50564;47.402;9.740;2023-06-14T14:56:17;7.00;;;2.78;;
64235;SDS011;50564;47.402;9.740;2023-06-14T15:01:18;4.10;;;3.13;;
64235;SDS011;50564;47.402;9.740;2023-06-14T15:06:18;7.97;;;3.20;;
64235;SDS011;50564;47.402;9.740;2023-06-14T15:11:19;4.32;;;2.67;;
64235;SDS011;50564;47.402;9.740;2023-06-14T15:16:20;6.57;;;3.13;;
64235;SDS011;50564;47.402;9.740;2023-06-14T15:21:20;4.03;;;2.70;;
64235;SDS011;50564;47.402;9.740;2023-06-14T15:26:22;5.75;;;2.92;;
64235;SDS011;50564;47.402;9.740;2023-06-14T15:31:24;6.28;;;2.67;;
64235;SDS011;50564;47.402;9.740;2023-06-14T15:36:28;4.93;;;2.72;;
64235;SDS011;50564;47.402;9.740;2023-06-14T15:41:28;5.47;;;2.85;;
64235;SDS011;50564;47.402;9.740;2023-06-14T15:46:29;6.82;;;3.00;;
64235;SDS011;50564;47.402;9.740;2023-06-14T15:51:29;4.50;;;2.83;;
64235;SDS011;50564;47.402;9.740;2023-06-14T15:56:30;5.63;;;2.60;;
64235;SDS011;50564;47.402;9.740;2023-06-14T16:01:30;5.57;;;3.10;;
64235;SDS011;50564;47.402;9.740;2023-06-14T16:06:31;5.35;;;2.80;;
64235;SDS011;50564;47.402;9.740;2023-06-14T16:11:32;5.78;;;2.72;;
64235;SDS011;50564;47.402;9.740;2023-06-14T16:16:32;6.95;;;2.80;;
64235;SDS011;50564;47.402;9.740;2023-06-14T16:21:33;4.32;;;2.83;;
64235;SDS011;50564;47.402;9.740;2023-06-14T16:26:36;4.80;;;2.90;;
64235;SDS011;50564;47.402;9.740;2023-06-14T16:31:37;3.50;;;2.53;;
64235;SDS011;50564;47.402;9.740;2023-06-14T16:36:38;4.68;;;2.83;;
64235;SDS011;50564;47.402;9.740;2023-06-14T16:41:38;5.78;;;2.88;;
64235;SDS011;50564;47.402;9.740;2023-06-14T16:46:39;4.43;;;3.08;;
64235;SDS011;50564;47.402;9.740;2023-06-14T16:51:40;6.75;;;2.75;;
64235;SDS011;50564;47.402;9.740;2023-06-14T16:56:40;6.80;;;2.72;;
64235;SDS011;50564;47.402;9.740;2023-06-14T17:01:41;5.78;;;3.00;;
64235;SDS011;50564;47.402;9.740;2023-06-14T17:06:42;5.32;;;2.60;;
64235;SDS011;50564;47.402;9.740;2023-06-14T17:11:42;6.43;;;3.00;;
64235;SDS011;50564;47.402;9.740;2023-06-14T17:16:43;5.50;;;2.90;;
64235;SDS011;50564;47.402;9.740;2023-06-14T17:21:43;3.72;;;3.03;;
64235;SDS011;50564;47.402;9.740;2023-06-14T17:26:49;5.80;;;3.97;;
64235;SDS011;50564;47.402;9.740;2023-06-14T17:31:49;6.47;;;3.22;;
64235;SDS011;50564;47.402;9.740;2023-06-14T17:36:50;6.47;;;3.00;;
64235;SDS011;50564;47.402;9.740;2023-06-14T17:41:51;5.20;;;3.33;;
64235;SDS011;50564;47.402;9.740;2023-06-14T17:46:51;6.18;;;3.30;;
64235;SDS011;50564;47.402;9.740;2023-06-14T17:51:52;9.60;;;3.75;;
64235;SDS011;50564;47.402;9.740;2023-06-14T17:56:53;4.60;;;3.17;;
64235;SDS011;50564;47.402;9.740;2023-06-14T18:01:53;9.88;;;3.50;;
64235;SDS011;50564;47.402;9.740;2023-06-14T18:06:54;4.35;;;2.90;;
64235;SDS011;50564;47.402;9.740;2023-06-14T18:11:55;6.30;;;3.40;;
64235;SDS011;50564;47.402;9.740;2023-06-14T18:16:56;9.48;;;3.90;;
64235;SDS011;50564;47.402;9.740;2023-06-14T18:21:56;7.95;;;3.70;;
64235;SDS011;50564;47.402;9.740;2023-06-14T18:26:57;4.90;;;3.30;;
64235;SDS011;50564;47.402;9.740;2023-06-14T18:32:01;6.50;;;3.33;;
64235;SDS011;50564;47.402;9.740;2023-06-14T18:37:02;5.47;;;3.33;;
64235;SDS011;50564;47.402;9.740;2023-06-14T18:42:03;5.80;;;3.53;;
64235;SDS011;50564;47.402;9.740;2023-06-14T18:47:04;6.43;;;3.90;;
64235;SDS011;50564;47.402;9.740;2023-06-14T18:52:05;6.55;;;3.22;;
64235;SDS011;50564;47.402;9.740;2023-06-14T18:57:06;6.35;;;3.15;;
64235;SDS011;50564;47.402;9.740;2023-06-14T19:02:07;7.85;;;3.85;;
64235;SDS011;50564;47.402;9.740;2023-06-14T19:07:08;6.25;;;3.47;;
64235;SDS011;50564;47.402;9.740;2023-06-14T19:12:09;5.40;;;3.30;;
64235;SDS011;50564;47.402;9.740;2023-06-14T19:17:10;7.70;;;3.75;;
64235;SDS011;50564;47.402;9.740;2023-06-14T19:22:11;8.38;;;3.80;;
64235;SDS011;50564;47.402;9.740;2023-06-14T19:27:13;5.30;;;3.35;;
64235;SDS011;50564;47.402;9.740;2023-06-14T19:32:13;7.53;;;3.80;;
64235;SDS011;50564;47.402;9.740;2023-06-14T19:37:14;5.63;;;4.13;;
64235;SDS011;50564;47.402;9.740;2023-06-14T19:42:15;7.30;;;3.50;;
64235;SDS011;50564;47.402;9.740;2023-06-14T19:47:15;8.32;;;4.05;;
64235;SDS011;50564;47.402;9.740;2023-06-14T19:52:16;5.10;;;3.63;;
64235;SDS011;50564;47.402;9.740;2023-06-14T19:57:17;5.68;;;3.40;;
64235;SDS011;50564;47.402;9.740;2023-06-14T20:02:17;7.30;;;4.03;;
64235;SDS011;50564;47.402;9.740;2023-06-14T20:07:20;5.13;;;3.45;;
64235;SDS011;50564;47.402;9.740;2023-06-14T20:12:21;6.82;;;3.40;;
64235;SDS011;50564;47.402;9.740;2023-06-14T20:17:21;6.03;;;3.80;;
64235;SDS011;50564;47.402;9.740;2023-06-14T20:22:23;9.52;;;4.18;;
64235;SDS011;50564;47.402;9.740;2023-06-14T20:27:23;7.90;;;4.22;;
64235;SDS011;50564;47.402;9.740;2023-06-14T20:32:24;6.53;;;4.22;;
64235;SDS011;50564;47.402;9.740;2023-06-14T20:37:27;6.82;;;4.32;;
64235;SDS011;50564;47.402;9.740;2023-06-14T20:42:28;7.38;;;4.10;;
64235;SDS011;50564;47.402;9.740;2023-06-14T20:47:29;6.30;;;4.63;;
64235;SDS011;50564;47.402;9.740;2023-06-14T20:52:30;5.15;;;4.15;;
64235;SDS011;50564;47.402;9.740;2023-06-14T20:57:30;8.02;;;3.80;;
64235;SDS011;50564;47.402;9.740;2023-06-14T21:02:31;5.50;;;3.50;;
64235;SDS011;50564;47.402;9.740;2023-06-14T21:07:31;6.95;;;3.60;;
64235;SDS011;50564;47.402;9.740;2023-06-14T21:12:32;6.13;;;3.60;;
64235;SDS011;50564;47.402;9.740;2023-06-14T21:17:33;5.72;;;3.53;;
64235;SDS011;50564;47.402;9.740;2023-06-14T21:22:35;6.50;;;3.95;;
64235;SDS011;50564;47.402;9.740;2023-06-14T21:27:36;6.40;;;3.85;;
64235;SDS011;50564;47.402;9.740;2023-06-14T21:32:36;5.10;;;3.28;;
64235;SDS011;50564;47.402;9.740;2023-06-14T21:37:37;6.43;;;4.07;;
64235;SDS011;50564;47.402;9.740;2023-06-14T21:42:38;4.85;;;3.42;;
64235;SDS011;50564;47.402;9.740;2023-06-14T21:47:38;5.88;;;3.50;;
64235;SDS011;50564;47.402;9.740;2023-06-14T21:52:39;6.65;;;3.53;;
64235;SDS011;50564;47.402;9.740;2023-06-14T21:57:40;7.35;;;3.78;;
64235;SDS011;50564;47.402;9.740;2023-06-14T22:02:41;5.28;;;3.58;;
64235;SDS011;50564;47.402;9.740;2023-06-14T22:07:41;4.65;;;3.40;;
64235;SDS011;50564;47.402;9.740;2023-06-14T22:12:44;4.20;;;3.55;;
64235;SDS011;50564;47.402;9.740;2023-06-14T22:17:45;5.10;;;3.50;;
64235;SDS011;50564;47.402;9.740;2023-06-14T22:22:46;6.93;;;3.47;;
64235;SDS011;50564;47.402;9.740;2023-06-14T22:27:48;8.43;;;3.78;;
64235;SDS011;50564;47.402;9.740;2023-06-14T22:32:48;8.27;;;3.72;;
64235;SDS011;50564;47.402;9.740;2023-06-14T22:37:50;8.27;;;4.05;;
64235;SDS011;50564;47.402;9.740;2023-06-14T22:42:51;5.35;;;3.83;;
64235;SDS011;50564;47.402;9.740;2023-06-14T22:47:53;6.78;;;4.00;;
64235;SDS011;50564;47.402;9.740;2023-06-14T22:52:53;6.93;;;4.18;;
64235;SDS011;50564;47.402;9.740;2023-06-14T22:57:54;5.75;;;3.50;;
64235;SDS011;50564;47.402;9.740;2023-06-14T23:02:55;6.82;;;4.00;;
64235;SDS011;50564;47.402;9.740;2023-06-14T23:07:56;7.13;;;3.80;;
64235;SDS011;50564;47.402;9.740;2023-06-14T23:12:57;8.07;;;3.78;;
64235;SDS011;50564;47.402;9.740;2023-06-14T23:17:59;6.50;;;3.83;;
64235;SDS011;50564;47.402;9.740;2023-06-14T23:22:59;5.38;;;3.85;;
64235;SDS011;50564;47.402;9.740;2023-06-14T23:28:03;6.22;;;3.63;;
64235;SDS011;50564;47.402;9.740;2023-06-14T23:33:07;5.28;;;3.70;;
64235;SDS011;50564;47.402;9.740;2023-06-14T23:38:08;6.00;;;3.70;;
64235;SDS011;50564;47.402;9.740;2023-06-14T23:43:12;6.97;;;4.40;;
64235;SDS011;50564;47.402;9.740;2023-06-14T23:48:14;7.35;;;3.40;;
64235;SDS011;50564;47.402;9.740;2023-06-14T23:53:16;8.40;;;4.20;;
64235;SDS011;50564;47.402;9.740;2023-06-14T23:58:16;5.85;;;3.70;;
